createdAt,value
2022-09-27T00:01:18.061Z,97874.56
2022-09-27T00:03:46.536Z,97869.81
2022-09-27T00:06:17.371Z,97873.06
2022-09-27T00:08:45.741Z,97870.75
2022-09-27T00:11:23.847Z,97859.63
2022-09-27T00:13:52.215Z,97860.91
2022-09-27T00:16:21.997Z,97854.22
2022-09-27T00:18:50.693Z,97849.47
2022-09-27T00:21:19.315Z,97851.09
2022-09-27T00:23:47.675Z,97841.16
2022-09-27T00:26:16.105Z,97847.50
2022-09-27T00:28:44.474Z,97838.38
2022-09-27T00:31:22.513Z,97832.69
2022-09-27T00:33:54.099Z,97821.94
2022-09-27T00:36:25.790Z,97825.09
2022-09-27T00:38:55.777Z,97821.03
2022-09-27T00:41:26.540Z,97808.97
2022-09-27T00:43:57.204Z,97808.53
2022-09-27T00:46:34.876Z,97804.81
2022-09-27T00:49:10.575Z,97800.78
2022-09-27T00:51:42.234Z,97796.25
2022-09-27T00:54:14.234Z,97799.03
2022-09-27T00:56:44.702Z,97797.75
2022-09-27T00:59:20.726Z,97797.66
2022-09-27T01:01:51.551Z,97789.66
2022-09-27T01:04:25.690Z,97792.78
2022-09-27T01:06:54.790Z,97790.38
2022-09-27T01:09:25.849Z,97776.03
2022-09-27T01:12:04.866Z,97777.53
2022-09-27T01:14:50.145Z,97775.09
2022-09-27T01:17:39.592Z,97774.63
2022-09-27T01:21:01.981Z,97765.38
2022-09-27T01:24:01.297Z,97759.38
2022-09-27T01:27:10.305Z,97763.66
2022-09-27T01:29:51.306Z,97762.00
2022-09-27T01:32:30.316Z,97751.28
2022-09-27T01:35:07.202Z,97738.91
2022-09-27T01:37:44.313Z,97742.84
2022-09-27T01:40:25.483Z,97745.84
2022-09-27T01:43:01.684Z,97737.53
2022-09-27T01:45:36.277Z,97735.06
2022-09-27T01:48:12.059Z,97728.22
2022-09-27T01:50:47.201Z,97734.94
2022-09-27T01:53:22.996Z,97728.94
2022-09-27T01:55:55.328Z,97726.97
2022-09-27T01:58:31.912Z,97721.44
2022-09-27T02:01:02.109Z,97718.66
2022-09-27T02:03:36.631Z,97719.78
2022-09-27T02:06:13.925Z,97713.44
2022-09-27T02:08:48.348Z,97717.03
2022-09-27T02:11:17.003Z,97714.25
2022-09-27T02:13:53.654Z,97712.16
2022-09-27T02:16:30.546Z,97717.69
2022-09-27T02:19:10.160Z,97709.28
2022-09-27T02:21:51.393Z,97717.59
2022-09-27T02:24:28.134Z,97714.38
2022-09-27T02:27:07.263Z,97717.47
2022-09-27T02:29:42.360Z,97729.34
2022-09-27T02:32:10.711Z,97721.19
2022-09-27T02:34:41.738Z,97719.34
2022-09-27T02:37:10.225Z,97715.16
2022-09-27T02:39:39.054Z,97713.34
2022-09-27T02:42:08.217Z,97709.56
2022-09-27T02:44:36.967Z,97705.25
2022-09-27T02:47:29.951Z,97709.66
2022-09-27T02:50:26.224Z,97700.44
2022-09-27T02:53:08.121Z,97702.03
2022-09-27T02:55:50.850Z,97708.63
2022-09-27T02:58:31.938Z,97721.22
2022-09-27T03:01:09.461Z,97703.16
2022-09-27T03:03:45.218Z,97711.00
2022-09-27T03:06:18.131Z,97707.31
2022-09-27T03:08:47.706Z,97703.28
2022-09-27T03:11:16.167Z,97689.28
2022-09-27T03:14:07.345Z,97698.31
2022-09-27T03:16:33.938Z,97690.31
2022-09-27T03:19:02.342Z,97691.47
2022-09-27T03:21:32.046Z,97695.03
2022-09-27T03:24:00.393Z,97689.16
2022-09-27T03:26:28.762Z,97683.28
2022-09-27T03:28:57.507Z,97686.03
2022-09-27T03:31:25.970Z,97677.72
2022-09-27T03:33:54.318Z,97679.69
2022-09-27T03:36:22.723Z,97664.22
2022-09-27T03:38:52.406Z,97666.84
2022-09-27T03:41:20.765Z,97662.81
2022-09-27T03:43:49.127Z,97659.94
2022-09-27T03:46:17.544Z,97658.66
2022-09-27T03:48:46.081Z,97652.66
2022-09-27T03:51:14.415Z,97647.94
2022-09-27T03:53:42.939Z,97646.44
2022-09-27T03:56:12.762Z,97644.13
2022-09-27T03:58:41.075Z,97638.69
2022-09-27T04:01:09.954Z,97639.28
2022-09-27T04:03:38.569Z,97635.47
2022-09-27T04:06:07.739Z,97630.47
2022-09-27T04:08:36.553Z,97623.91
2022-09-27T04:11:05.003Z,97617.66
2022-09-27T04:13:34.663Z,97620.06
2022-09-27T04:16:04.039Z,97625.78
2022-09-27T04:18:32.425Z,97628.34
2022-09-27T04:21:00.894Z,97620.94
2022-09-27T04:23:30.314Z,97620.69
2022-09-27T04:25:58.868Z,97619.19
2022-09-27T04:28:28.107Z,97619.28
2022-09-27T04:30:58.010Z,97617.78
2022-09-27T04:33:26.506Z,97615.47
2022-09-27T04:36:12.345Z,97620.69
2022-09-27T04:38:40.739Z,97617.91
2022-09-27T04:41:09.532Z,97617.91
2022-09-27T04:43:38.010Z,97618.25
2022-09-27T04:46:07.954Z,97621.00
2022-09-27T04:48:37.373Z,97618.38
2022-09-27T04:51:06.001Z,97617.66
2022-09-27T04:53:34.669Z,97611.78
2022-09-27T04:56:06.159Z,97603.09
2022-09-27T04:58:35.738Z,97609.09
2022-09-27T05:01:04.818Z,97613.13
2022-09-27T05:03:34.890Z,97614.41
2022-09-27T05:06:03.406Z,97612.00
2022-09-27T05:08:31.844Z,97616.59
2022-09-27T05:11:01.385Z,97619.16
2022-09-27T05:13:29.722Z,97609.91
2022-09-27T05:16:05.072Z,97598.28
2022-09-27T05:18:34.820Z,97604.97
2022-09-27T05:21:03.126Z,97592.25
2022-09-27T05:23:31.700Z,97589.13
2022-09-27T05:26:00.040Z,97586.81
2022-09-27T05:28:28.380Z,97593.63
2022-09-27T05:30:56.843Z,97586.22
2022-09-27T05:33:25.309Z,97579.97
2022-09-27T05:35:56.990Z,97579.16
2022-09-27T05:38:26.346Z,97574.97
2022-09-27T05:40:54.876Z,97575.91
2022-09-27T05:43:24.076Z,97576.47
2022-09-27T05:45:53.216Z,97575.06
2022-09-27T05:48:22.266Z,97569.25
2022-09-27T05:50:50.628Z,97573.84
2022-09-27T05:53:20.345Z,97571.97
2022-09-27T05:55:48.741Z,97565.03
2022-09-27T05:58:17.213Z,97566.38
2022-09-27T06:00:45.713Z,97564.66
2022-09-27T06:03:15.197Z,97557.66
2022-09-27T06:05:45.998Z,97560.19
2022-09-27T06:08:16.444Z,97557.94
2022-09-27T06:10:46.468Z,97555.38
2022-09-27T06:13:17.839Z,97554.66
2022-09-27T06:15:47.830Z,97550.81
2022-09-27T06:18:18.351Z,97551.38
2022-09-27T06:20:47.283Z,97561.75
2022-09-27T06:23:17.632Z,97558.25
2022-09-27T06:25:48.078Z,97555.13
2022-09-27T06:28:17.757Z,97556.03
2022-09-27T06:30:48.023Z,97558.88
2022-09-27T06:33:19.677Z,97556.22
2022-09-27T06:35:50.122Z,97553.97
2022-09-27T06:38:20.082Z,97558.44
2022-09-27T06:40:50.970Z,97555.03
2022-09-27T06:43:21.803Z,97550.44
2022-09-27T06:45:50.555Z,97553.88
2022-09-27T06:48:19.220Z,97553.69
2022-09-27T06:50:49.235Z,97554.66
2022-09-27T06:53:18.911Z,97556.81
2022-09-27T06:55:47.267Z,97554.56
2022-09-27T06:58:34.470Z,97560.19
2022-09-27T07:01:03.299Z,97559.84
2022-09-27T07:03:37.672Z,97557.50
2022-09-27T07:06:17.037Z,97552.81
2022-09-27T07:08:45.553Z,97558.38
2022-09-27T07:11:15.597Z,97563.94
2022-09-27T07:13:45.500Z,97554.88
2022-09-27T07:16:14.538Z,97549.38
2022-09-27T07:18:43.881Z,97557.06
2022-09-27T07:21:12.711Z,97561.56
2022-09-27T07:23:41.223Z,97565.69
2022-09-27T07:26:11.358Z,97572.50
2022-09-27T07:28:41.617Z,97577.69
2022-09-27T07:31:11.911Z,97576.38
2022-09-27T07:33:43.196Z,97579.06
2022-09-27T07:36:13.587Z,97582.50
2022-09-27T07:38:41.956Z,97581.63
2022-09-27T07:41:14.262Z,97577.97
2022-09-27T07:43:44.204Z,97585.84
2022-09-27T07:46:14.772Z,97588.09
2022-09-27T07:48:43.239Z,97587.66
2022-09-27T07:51:12.194Z,97593.66
2022-09-27T07:53:41.353Z,97588.00
2022-09-27T07:56:09.896Z,97595.47
2022-09-27T07:58:38.232Z,97597.38
2022-09-27T08:01:07.401Z,97598.47
2022-09-27T08:03:38.016Z,97602.31
2022-09-27T08:06:06.657Z,97608.16
2022-09-27T08:08:35.056Z,97615.50
2022-09-27T08:11:12.219Z,97614.03
2022-09-27T08:13:40.524Z,97620.84
2022-09-27T08:16:09.028Z,97626.94
2022-09-27T08:18:38.959Z,97632.59
2022-09-27T08:21:07.612Z,97636.69
2022-09-27T08:23:37.006Z,97645.88
2022-09-27T08:26:05.423Z,97638.78
2022-09-27T08:28:33.825Z,97649.06
2022-09-27T08:31:02.528Z,97651.78
2022-09-27T08:33:33.027Z,97665.59
2022-09-27T08:36:04.290Z,97662.25
2022-09-27T08:38:32.690Z,97665.06
2022-09-27T08:41:09.168Z,97661.38
2022-09-27T08:43:48.692Z,97666.75
2022-09-27T08:46:34.305Z,97672.31
2022-09-27T08:49:11.876Z,97672.84
2022-09-27T08:51:43.484Z,97669.06
2022-09-27T08:54:20.254Z,97677.13
2022-09-27T08:56:49.388Z,97672.72
2022-09-27T08:59:22.012Z,97675.84
2022-09-27T09:01:51.505Z,97666.38
2022-09-27T09:04:29.941Z,97665.22
2022-09-27T09:07:14.911Z,97650.69
2022-09-27T09:09:56.813Z,97639.50
2022-09-27T09:12:47.838Z,97631.19
2022-09-27T09:15:26.753Z,97648.97
2022-09-27T09:18:16.382Z,97652.13
2022-09-27T09:20:58.627Z,97646.81
2022-09-27T09:24:06.695Z,97656.63
2022-09-27T09:26:42.108Z,97648.53
2022-09-27T09:29:37.148Z,97658.00
2022-09-27T09:32:21.293Z,97654.44
2022-09-27T09:34:55.846Z,97654.31
2022-09-27T09:37:35.479Z,97655.72
2022-09-27T09:40:18.607Z,97660.56
2022-09-27T09:42:53.441Z,97660.34
2022-09-27T09:45:27.551Z,97659.06
2022-09-27T09:48:04.148Z,97655.84
2022-09-27T09:50:43.515Z,97651.41
2022-09-27T09:53:17.515Z,97647.97
2022-09-27T09:55:53.892Z,97655.25
2022-09-27T09:58:27.612Z,97649.47
2022-09-27T10:01:01.990Z,97641.84
2022-09-27T10:03:30.432Z,97639.97
2022-09-27T10:05:58.917Z,97637.28
2022-09-27T10:08:27.368Z,97628.69
2022-09-27T10:10:57.274Z,97623.19
2022-09-27T10:13:25.843Z,97619.66
2022-09-27T10:16:03.935Z,97617.66
2022-09-27T10:18:33.510Z,97612.19
2022-09-27T10:21:07.203Z,97611.19
2022-09-27T10:23:35.645Z,97616.56
2022-09-27T10:26:07.622Z,97618.63
2022-09-27T10:28:38.699Z,97617.00
2022-09-27T10:31:10.677Z,97621.22
2022-09-27T10:33:53.061Z,97609.50
2022-09-27T10:36:26.547Z,97618.84
2022-09-27T10:38:57.684Z,97612.13
2022-09-27T10:41:34.533Z,97612.72
2022-09-27T10:44:27.286Z,97621.47
2022-09-27T10:46:59.553Z,97617.09
2022-09-27T10:49:33.648Z,97611.25
2022-09-27T10:52:04.881Z,97603.72
2022-09-27T10:54:37.243Z,97610.34
2022-09-27T10:57:19.323Z,97621.19
2022-09-27T10:59:53.806Z,97617.59
2022-09-27T11:02:25.613Z,97615.81
2022-09-27T11:05:15.700Z,97615.19
2022-09-27T11:07:52.897Z,97614.03
2022-09-27T11:10:28.898Z,97615.41
2022-09-27T11:13:13.057Z,97604.13
2022-09-27T11:15:56.838Z,97605.22
2022-09-27T11:18:37.419Z,97592.03
2022-09-27T11:21:16.376Z,97589.63
2022-09-27T11:24:09.429Z,97597.22
2022-09-27T11:26:51.618Z,97588.22
2022-09-27T11:29:31.772Z,97593.47
2022-09-27T11:32:21.110Z,97593.56
2022-09-27T11:35:07.103Z,97592.03
2022-09-27T11:37:48.643Z,97585.13
2022-09-27T11:40:35.678Z,97592.59
2022-09-27T11:43:23.675Z,97600.09
2022-09-27T11:46:18.179Z,97598.41
2022-09-27T11:49:22.029Z,97605.91
2022-09-27T11:52:21.774Z,97602.28
2022-09-27T11:55:18.112Z,97587.50
2022-09-27T11:57:57.898Z,97581.94
2022-09-27T12:00:35.237Z,97593.94
2022-09-27T12:04:01.331Z,97602.53
2022-09-27T12:06:44.377Z,97592.47
2022-09-27T12:09:19.703Z,97592.09
2022-09-27T12:11:52.670Z,97590.03
2022-09-27T12:14:30.822Z,97589.84
2022-09-27T12:17:00.171Z,97587.19
2022-09-27T12:19:34.062Z,97588.44
2022-09-27T12:22:06.861Z,97585.44
2022-09-27T12:24:36.104Z,97593.66
2022-09-27T12:27:11.661Z,97586.53
2022-09-27T12:29:43.580Z,97581.84
2022-09-27T12:32:17.922Z,97584.41
2022-09-27T12:34:56.031Z,97596.50
2022-09-27T12:37:29.933Z,97587.47
2022-09-27T12:40:04.623Z,97587.16
2022-09-27T12:42:38.614Z,97576.88
2022-09-27T12:45:13.079Z,97592.38
2022-09-27T12:48:00.033Z,97589.88
2022-09-27T12:50:37.730Z,97591.06
2022-09-27T12:53:15.126Z,97588.56
2022-09-27T12:56:30.985Z,97585.59
2022-09-27T12:59:26.694Z,97589.00
2022-09-27T13:03:03.869Z,97588.00
2022-09-27T13:06:11.318Z,97581.78
2022-09-27T13:09:02.727Z,97591.94
2022-09-27T13:11:47.485Z,97589.78
2022-09-27T13:14:21.589Z,97586.47
2022-09-27T13:16:51.480Z,97596.03
2022-09-27T13:19:44.192Z,97594.59
2022-09-27T13:22:39.390Z,97609.06
2022-09-27T13:25:55.569Z,97600.84
2022-09-27T13:28:38.246Z,97605.78
2022-09-27T13:31:10.924Z,97621.16
2022-09-27T13:33:47.554Z,97611.09
2022-09-27T13:36:33.035Z,97622.50
2022-09-27T13:39:22.525Z,97618.13
2022-09-27T13:42:11.102Z,97624.03
2022-09-27T13:44:54.758Z,97617.38
2022-09-27T13:47:32.460Z,97622.69
2022-09-27T13:50:18.133Z,97621.97
2022-09-27T13:53:04.226Z,97623.56
2022-09-27T13:55:47.080Z,97625.91
2022-09-27T13:58:45.530Z,97626.72
2022-09-27T14:01:24.708Z,97622.84
2022-09-27T14:03:55.972Z,97623.03
2022-09-27T14:06:30.232Z,97619.16
2022-09-27T14:09:03.798Z,97628.47
2022-09-27T14:11:38.958Z,97624.19
2022-09-27T14:14:15.308Z,97640.94
2022-09-27T14:16:47.717Z,97626.59
2022-09-27T14:19:20.668Z,97649.06
2022-09-27T14:21:50.342Z,97641.69
2022-09-27T14:24:29.880Z,97655.78
2022-09-27T14:27:25.438Z,97653.97
2022-09-27T14:29:56.778Z,97657.50
2022-09-27T14:32:27.118Z,97657.75
2022-09-27T14:35:28.823Z,97657.59
2022-09-27T14:37:57.422Z,97659.91
2022-09-27T14:40:26.167Z,97663.84
2022-09-27T14:42:59.511Z,97677.66
2022-09-27T14:45:37.647Z,97672.22
2022-09-27T14:48:22.377Z,97676.00
2022-09-27T14:51:04.785Z,97669.53
2022-09-27T14:53:37.022Z,97669.53
2022-09-27T14:56:08.151Z,97663.25
2022-09-27T14:58:47.656Z,97655.03
2022-09-27T15:01:18.187Z,97648.41
2022-09-27T15:03:48.992Z,97648.84
2022-09-27T15:06:18.462Z,97654.75
2022-09-27T15:08:49.656Z,97655.47
2022-09-27T15:11:19.471Z,97660.22
2022-09-27T15:13:55.106Z,97663.00
2022-09-27T15:16:25.493Z,97657.44
2022-09-27T15:19:03.767Z,97668.03
2022-09-27T15:21:34.878Z,97657.63
2022-09-27T15:24:04.346Z,97678.59
2022-09-27T15:26:41.192Z,97683.59
2022-09-27T15:29:20.895Z,97683.94
2022-09-27T15:32:00.831Z,97682.81
2022-09-27T15:34:30.141Z,97685.22
2022-09-27T15:37:00.848Z,97686.47
2022-09-27T15:39:33.725Z,97673.84
2022-09-27T15:42:09.000Z,97692.50
2022-09-27T15:44:47.903Z,97709.97
2022-09-27T15:47:51.415Z,97697.22
2022-09-27T15:50:35.943Z,97708.34
2022-09-27T15:53:06.963Z,97705.94
2022-09-27T15:55:41.486Z,97702.94
2022-09-27T15:58:16.926Z,97706.34
2022-09-27T16:00:58.654Z,97701.72
2022-09-27T16:03:28.312Z,97714.38
2022-09-27T16:05:58.180Z,97704.22
2022-09-27T16:08:28.149Z,97710.03
2022-09-27T16:10:58.979Z,97709.81
2022-09-27T16:13:32.685Z,97706.00
2022-09-27T16:16:04.257Z,97715.25
2022-09-27T16:18:32.896Z,97713.91
2022-09-27T16:21:01.478Z,97722.00
2022-09-27T16:23:29.829Z,97721.06
2022-09-27T16:25:58.219Z,97727.22
2022-09-27T16:28:26.579Z,97742.13
2022-09-27T16:30:55.024Z,97744.00
2022-09-27T16:33:24.784Z,97743.53
2022-09-27T16:35:53.163Z,97750.25
2022-09-27T16:38:21.458Z,97752.56
2022-09-27T16:40:49.859Z,97749.69
2022-09-27T16:43:21.992Z,97759.84
2022-09-27T16:45:50.323Z,97760.19
2022-09-27T16:48:18.676Z,97762.97
2022-09-27T16:51:05.801Z,97767.69
2022-09-27T16:53:34.146Z,97769.69
2022-09-27T16:56:02.859Z,97768.75
2022-09-27T16:58:31.309Z,97783.31
2022-09-27T17:01:00.098Z,97777.53
2022-09-27T17:03:29.182Z,97790.81
2022-09-27T17:06:04.142Z,97781.88
2022-09-27T17:08:32.526Z,97781.44
2022-09-27T17:11:01.303Z,97787.69
2022-09-27T17:13:29.676Z,97789.84
2022-09-27T17:15:58.465Z,97795.28
2022-09-27T17:18:26.941Z,97796.28
2022-09-27T17:21:00.549Z,97797.63
2022-09-27T17:23:30.833Z,97798.66
2022-09-27T17:26:05.688Z,97804.09
2022-09-27T17:28:34.548Z,97795.31
2022-09-27T17:31:10.560Z,97788.81
2022-09-27T17:33:43.535Z,97777.63
2022-09-27T17:36:15.362Z,97786.59
2022-09-27T17:38:47.023Z,97777.81
2022-09-27T17:41:17.645Z,97774.25
2022-09-27T17:43:50.290Z,97779.31
2022-09-27T17:46:21.042Z,97778.50
2022-09-27T17:49:19.215Z,97786.03
2022-09-27T17:51:50.228Z,97776.75
2022-09-27T17:54:21.979Z,97787.72
2022-09-27T17:56:51.933Z,97801.91
2022-09-27T17:59:20.565Z,97809.44
2022-09-27T18:01:49.708Z,97805.84
2022-09-27T18:04:19.898Z,97808.97
2022-09-27T18:06:49.543Z,97812.88
2022-09-27T18:09:19.892Z,97808.81
2022-09-27T18:11:48.435Z,97808.00
2022-09-27T18:14:17.821Z,97807.22
2022-09-27T18:16:46.396Z,97810.66
2022-09-27T18:19:16.955Z,97829.56
2022-09-27T18:21:45.427Z,97840.19
2022-09-27T18:24:14.304Z,97837.25
2022-09-27T18:26:48.884Z,97832.72
2022-09-27T18:29:19.612Z,97831.91
2022-09-27T18:31:49.208Z,97840.56
2022-09-27T18:34:18.743Z,97842.41
2022-09-27T18:36:48.223Z,97849.06
2022-09-27T18:39:19.803Z,97841.44
2022-09-27T18:41:50.138Z,97846.19
2022-09-27T18:44:19.579Z,97847.78
2022-09-27T18:46:49.014Z,97850.25
2022-09-27T18:49:21.088Z,97850.72
2022-09-27T18:51:52.472Z,97849.91
2022-09-27T18:54:23.580Z,97852.31
2022-09-27T18:56:53.875Z,97852.31
2022-09-27T18:59:24.292Z,97855.09
2022-09-27T19:01:53.313Z,97857.84
2022-09-27T19:04:24.891Z,97853.47
2022-09-27T19:06:56.200Z,97855.44
2022-09-27T19:09:26.507Z,97856.56
2022-09-27T19:11:56.635Z,97866.03
2022-09-27T19:14:25.174Z,97862.81
2022-09-27T19:16:56.055Z,97868.34
2022-09-27T19:19:24.923Z,97858.75
2022-09-27T19:21:53.477Z,97872.44
2022-09-27T19:24:22.400Z,97873.44
2022-09-27T19:26:54.017Z,97876.41
2022-09-27T19:29:24.120Z,97875.78
2022-09-27T19:31:52.851Z,97867.19
2022-09-27T19:34:21.440Z,97872.09
2022-09-27T19:36:50.098Z,97870.66
2022-09-27T19:39:18.834Z,97867.25
2022-09-27T19:41:47.325Z,97861.94
2022-09-27T19:44:15.752Z,97860.16
2022-09-27T19:46:46.321Z,97863.59
2022-09-27T19:49:14.963Z,97861.47
2022-09-27T19:51:43.644Z,97854.66
2022-09-27T19:54:13.164Z,97858.91
2022-09-27T19:56:41.891Z,97862.34
2022-09-27T19:59:10.605Z,97872.59
2022-09-27T20:01:41.155Z,97877.66
2022-09-27T20:04:13.542Z,97883.50
2022-09-27T20:06:42.430Z,97873.13
2022-09-27T20:09:11.069Z,97876.06
2022-09-27T20:11:39.593Z,97872.66
2022-09-27T20:14:08.346Z,97866.81
2022-09-27T20:16:41.099Z,97869.78
2022-09-27T20:19:12.493Z,97870.25
2022-09-27T20:21:40.979Z,97873.22
2022-09-27T20:24:09.429Z,97873.38
2022-09-27T20:26:38.128Z,97858.06
2022-09-27T20:29:08.020Z,97868.16
2022-09-27T20:31:39.698Z,97870.44
2022-09-27T20:34:15.427Z,97860.03
2022-09-27T20:36:45.278Z,97871.09
2022-09-27T20:39:16.653Z,97876.13
2022-09-27T20:41:47.529Z,97878.44
2022-09-27T20:44:18.237Z,97880.72
2022-09-27T20:46:48.323Z,97871.59
2022-09-27T20:49:19.911Z,97877.47
2022-09-27T20:51:49.547Z,97881.34
2022-09-27T20:54:18.472Z,97873.41
2022-09-27T20:56:49.141Z,97878.44
2022-09-27T20:59:20.103Z,97878.75
2022-09-27T21:01:50.905Z,97877.16
2022-09-27T21:04:23.514Z,97871.94
2022-09-27T21:06:53.143Z,97875.84
2022-09-27T21:09:21.588Z,97873.72
2022-09-27T21:11:51.916Z,97883.97
2022-09-27T21:14:20.666Z,97887.06
2022-09-27T21:16:49.208Z,97894.53
2022-09-27T21:19:18.095Z,97882.19
2022-09-27T21:21:48.071Z,97882.50
2022-09-27T21:24:16.602Z,97886.44
2022-09-27T21:26:45.222Z,97890.31
2022-09-27T21:29:15.539Z,97880.72
2022-09-27T21:31:44.153Z,97876.34
2022-09-27T21:34:12.665Z,97874.72
2022-09-27T21:36:40.989Z,97871.94
2022-09-27T21:39:10.987Z,97871.47
2022-09-27T21:41:39.959Z,97872.59
2022-09-27T21:44:09.085Z,97877.81
2022-09-27T21:46:41.806Z,97882.50
2022-09-27T21:49:11.250Z,97878.44
2022-09-27T21:51:41.442Z,97889.97
2022-09-27T21:54:15.234Z,97889.50
2022-09-27T21:56:44.962Z,97884.13
2022-09-27T21:59:18.474Z,97887.06
2022-09-27T22:01:47.795Z,97896.16
2022-09-27T22:04:16.365Z,97898.13
2022-09-27T22:06:45.058Z,97903.31
2022-09-27T22:09:18.228Z,97905.25
2022-09-27T22:11:47.924Z,97901.38
2022-09-27T22:14:17.505Z,97892.25
2022-09-27T22:16:45.905Z,97892.25
2022-09-27T22:19:16.387Z,97895.84
2022-09-27T22:21:44.869Z,97891.63
2022-09-27T22:24:17.543Z,97890.47
2022-09-27T22:26:49.398Z,97885.44
2022-09-27T22:29:18.009Z,97889.00
2022-09-27T22:31:46.828Z,97879.59
2022-09-27T22:34:18.927Z,97884.31
2022-09-27T22:36:47.686Z,97887.06
2022-09-27T22:39:17.427Z,97876.00
2022-09-27T22:41:45.898Z,97869.19
2022-09-27T22:44:14.261Z,97877.00
2022-09-27T22:46:42.728Z,97885.28
2022-09-27T22:49:11.071Z,97888.38
2022-09-27T22:51:39.426Z,97898.59
2022-09-27T22:54:08.828Z,97916.63
2022-09-27T22:56:38.542Z,97908.69
2022-09-27T22:59:07.040Z,97918.09
2022-09-27T23:01:36.816Z,97906.22
2022-09-27T23:04:05.265Z,97907.38
2022-09-27T23:06:33.649Z,97907.38
2022-09-27T23:09:02.805Z,97913.22
2022-09-27T23:11:31.818Z,97909.63
2022-09-27T23:14:05.006Z,97909.97
2022-09-27T23:16:36.338Z,97913.06
2022-09-27T23:19:06.857Z,97915.81
2022-09-27T23:21:35.531Z,97917.28
2022-09-27T23:24:03.885Z,97903.81
2022-09-27T23:26:32.182Z,97906.88
2022-09-27T23:29:03.350Z,97903.94
2022-09-27T23:31:33.766Z,97902.94
2022-09-27T23:34:05.290Z,97895.81
2022-09-27T23:36:33.698Z,97903.63
2022-09-27T23:39:02.475Z,97902.66
2022-09-27T23:41:31.099Z,97914.31
2022-09-27T23:44:01.010Z,97912.19
2022-09-27T23:46:29.509Z,97915.59
2022-09-27T23:48:58.998Z,97918.19
2022-09-27T23:51:27.493Z,97918.81
2022-09-27T23:53:57.762Z,97926.94
2022-09-27T23:56:26.528Z,97916.88
2022-09-27T23:58:54.941Z,97913.88
